Time;durP1;ratioP1;P1;durP2;ratioP2;P2;SDS_P1;SDS_P2;PMS_P1;PMS_P2;Temp;Humidity;BMP_temperature;BMP_pressure;BME280_temperature;BME280_humidity;BME280_pressure;Samples;Min_cycle;Max_cycle;Signal;HPM_P1;HPM_P2
2022/06/11 00:01:27;;;;;;;14.43;9.77;;;;;;;19.24;68.66;99508.19;5043106;28;20494;-63
2022/06/11 00:03:57;;;;;;;23.98;9.82;;;;;;;19.23;67.97;99514.41;5060958;28;20141;-63
2022/06/11 00:06:25;;;;;;;14.10;9.55;;;;;;;19.22;68.20;99515.34;5065816;28;20075;-63
2022/06/11 00:08:51;;;;;;;18.10;9.70;;;;;;;19.13;68.56;99509.69;5032626;28;20080;-63
2022/06/11 00:11:17;;;;;;;16.67;9.65;;;;;;;19.14;68.56;99518.44;5032695;28;20470;-63
2022/06/11 00:13:43;;;;;;;15.43;9.68;;;;;;;19.07;69.55;99517.94;5032679;28;20498;-62
2022/06/11 00:16:09;;;;;;;16.63;9.85;;;;;;;19.01;69.66;99518.31;5031476;28;20026;-62
2022/06/11 00:18:37;;;;;;;15.43;10.10;;;;;;;19.04;69.61;99522.53;5033019;28;20076;-62
2022/06/11 00:21:04;;;;;;;16.17;9.55;;;;;;;18.93;69.60;99505.63;5032433;28;20470;-62
2022/06/11 00:23:30;;;;;;;14.07;9.52;;;;;;;18.99;69.25;99517.56;5043951;28;20037;-62
2022/06/11 00:25:55;;;;;;;12.43;9.35;;;;;;;18.97;69.61;99522.91;5052603;28;20025;-62
2022/06/11 00:28:21;;;;;;;14.93;9.93;;;;;;;18.98;69.61;99523.72;5063850;28;20067;-62
2022/06/11 00:30:47;;;;;;;13.65;9.68;;;;;;;18.92;69.69;99524.09;5068492;28;20031;-62
2022/06/11 00:33:14;;;;;;;16.15;9.23;;;;;;;18.79;70.33;99534.44;5068504;28;20093;-62
2022/06/11 00:35:40;;;;;;;13.88;9.60;;;;;;;18.79;70.11;99532.66;5047611;28;20041;-62
2022/06/11 00:38:08;;;;;;;15.57;9.98;;;;;;;18.73;70.30;99524.31;5032355;28;20037;-63
2022/06/11 00:40:37;;;;;;;20.33;10.07;;;;;;;18.75;70.79;99522.44;5032236;28;20108;-63
2022/06/11 00:43:06;;;;;;;22.42;10.60;;;;;;;18.74;70.37;99526.84;5050028;28;20093;-63
2022/06/11 00:45:40;;;;;;;17.52;10.70;;;;;;;18.44;70.28;99482.22;5067391;28;20431;-63
2022/06/11 00:48:12;;;;;;;21.35;10.35;;;;;;;18.74;71.12;99521.59;5052272;28;20040;-62
2022/06/11 00:50:48;;;;;;;19.17;9.85;;;;;;;18.63;71.11;99511.72;5047987;28;20025;-63
2022/06/11 00:53:39;;;;;;;16.92;10.65;;;;;;;18.60;71.38;99532.03;5032996;28;20026;-62
2022/06/11 00:56:11;;;;;;;16.50;10.48;;;;;;;18.39;72.26;99516.56;5034614;28;20060;-62
2022/06/11 00:58:40;;;;;;;16.40;10.35;;;;;;;18.22;72.16;99503.59;5031898;28;20034;-63
2022/06/11 01:01:07;;;;;;;17.02;9.98;;;;;;;18.47;72.07;99537.13;5031634;28;20029;-63
2022/06/11 01:03:38;;;;;;;13.50;10.27;;;;;;;18.25;71.88;99495.53;5036187;28;20017;-63
2022/06/11 01:06:30;;;;;;;17.15;10.80;;;;;;;18.51;71.63;99524.69;5051666;28;20053;-64
2022/06/11 01:09:02;;;;;;;18.27;10.07;;;;;;;18.55;72.26;99541.94;5051611;28;20094;-63
2022/06/11 01:12:05;;;;;;;16.08;10.30;;;;;;;18.52;72.43;99547.38;5051898;28;20031;-63
2022/06/11 01:14:57;;;;;;;17.13;10.27;;;;;;;18.41;71.74;99558.44;5051505;28;20036;-63
2022/06/11 01:17:51;;;;;;;17.48;9.90;;;;;;;18.40;72.58;99565.47;5062542;28;20040;-63
2022/06/11 01:20:49;;;;;;;19.40;10.50;;;;;;;18.38;72.37;99569.09;5034104;28;20040;-63
2022/06/11 01:23:32;;;;;;;20.65;10.68;;;;;;;18.41;73.08;99574.19;5058063;28;20080;-63
2022/06/11 01:26:13;;;;;;;17.67;10.90;;;;;;;18.41;72.81;99571.56;5035387;28;20021;-63
2022/06/11 01:28:57;;;;;;;18.77;10.32;;;;;;;18.11;72.36;99515.53;5053461;28;20032;-64
2022/06/11 01:31:28;;;;;;;19.65;10.88;;;;;;;18.11;73.57;99520.75;5055112;28;20052;-64
2022/06/11 01:34:17;;;;;;;20.92;10.55;;;;;;;18.15;73.52;99520.59;5047785;28;20044;-64
2022/06/11 01:36:47;;;;;;;18.70;10.77;;;;;;;18.38;73.36;99572.56;5040662;28;20041;-64
2022/06/11 01:39:22;;;;;;;18.35;10.60;;;;;;;18.35;73.03;99553.56;5053460;28;20036;-64
2022/06/11 01:42:00;;;;;;;13.95;10.38;;;;;;;18.44;73.23;99582.72;5035075;28;20022;-64
2022/06/11 01:44:33;;;;;;;22.13;11.32;;;;;;;18.33;74.12;99569.38;5035170;28;20029;-64
2022/06/11 01:47:00;;;;;;;19.23;11.38;;;;;;;18.32;73.66;99558.97;5034694;28;20099;-64
2022/06/11 01:49:25;;;;;;;16.83;10.93;;;;;;;18.41;73.37;99566.31;5034587;28;20072;-64
2022/06/11 01:52:12;;;;;;;16.77;11.38;;;;;;;18.48;73.54;99572.06;5034839;28;20557;-63
2022/06/11 01:54:44;;;;;;;21.88;10.98;;;;;;;18.49;73.59;99574.59;5041669;28;20056;-64
2022/06/11 01:57:28;;;;;;;18.95;10.40;;;;;;;18.53;73.20;99575.28;5036734;28;20025;-64
2022/06/11 02:00:23;;;;;;;20.42;10.85;;;;;;;18.56;73.45;99580.34;5074613;28;20031;-64
2022/06/11 02:03:12;;;;;;;21.77;10.90;;;;;;;18.54;73.34;99580.44;5054700;28;20058;-64
2022/06/11 02:05:49;;;;;;;20.73;10.95;;;;;;;18.60;73.71;99582.72;5033204;28;20495;-64
2022/06/11 02:08:34;;;;;;;22.13;11.88;;;;;;;18.27;73.56;99520.75;5070725;28;20078;-64
2022/06/11 02:11:05;;;;;;;23.38;11.80;;;;;;;18.66;72.87;99571.03;5042230;28;20026;-64
2022/06/11 02:13:56;;;;;;;29.08;12.27;;;;;;;18.41;72.75;99516.50;5034561;28;20040;-64
2022/06/11 02:16:36;;;;;;;22.17;11.77;;;;;;;18.45;72.76;99521.50;5034791;28;20034;-64
2022/06/11 02:19:07;;;;;;;20.73;11.70;;;;;;;18.69;72.71;99562.97;5032868;28;20025;-63
2022/06/11 02:21:40;;;;;;;18.95;11.00;;;;;;;18.79;72.34;99566.75;5034324;28;20156;-62
2022/06/11 02:24:13;;;;;;;19.42;10.98;;;;;;;18.83;72.21;99559.56;5049185;28;20331;-62
2022/06/11 02:26:46;;;;;;;19.08;10.68;;;;;;;18.57;71.13;99505.97;5054027;28;20033;-62
2022/06/11 02:29:15;;;;;;;17.77;10.52;;;;;;;18.87;70.63;99540.13;5054192;28;20025;-62
2022/06/11 02:31:46;;;;;;;21.80;10.68;;;;;;;18.71;71.19;99503.41;5053511;28;20028;-62
2022/06/11 02:34:15;;;;;;;18.57;10.23;;;;;;;19.07;70.20;99538.94;5054137;28;20372;-62
2022/06/11 02:36:59;;;;;;;17.15;10.23;;;;;;;18.97;69.24;99493.19;5053940;28;20059;-63
2022/06/11 02:39:27;;;;;;;15.27;9.95;;;;;;;19.31;68.82;99538.41;5053665;28;20033;-62
2022/06/11 02:41:53;;;;;;;17.50;10.40;;;;;;;19.43;68.73;99540.31;5053920;28;20143;-63
2022/06/11 02:44:19;;;;;;;14.07;9.68;;;;;;;19.45;67.20;99533.19;5053518;28;20063;-62
2022/06/11 02:46:46;;;;;;;12.20;9.00;;;;;;;19.54;66.71;99531.78;5065576;28;20035;-63
2022/06/11 02:49:24;;;;;;;12.43;8.68;;;;;;;19.36;67.21;99499.59;5055781;28;20067;-63
2022/06/11 02:51:53;;;;;;;10.60;8.55;;;;;;;19.29;65.58;99485.97;5045400;28;20162;-62
2022/06/11 02:54:20;;;;;;;12.85;9.07;;;;;;;19.59;66.48;99542.84;5064273;28;20021;-62
2022/06/11 02:56:48;;;;;;;13.32;8.90;;;;;;;19.39;66.22;99495.94;5053871;28;20029;-63
2022/06/11 02:59:15;;;;;;;8.77;7.95;;;;;;;19.71;66.40;99543.03;5034608;28;20021;-63
2022/06/11 03:01:42;;;;;;;11.13;8.07;;;;;;;19.56;66.17;99523.81;5045964;28;20036;-63
2022/06/11 03:04:08;;;;;;;13.65;8.35;;;;;;;19.70;66.18;99539.56;5042608;28;20029;-63
2022/06/11 03:06:34;;;;;;;8.80;7.88;;;;;;;19.78;66.48;99542.56;5033376;28;20036;-63
2022/06/11 03:09:00;;;;;;;12.30;10.55;;;;;;;19.84;66.57;99538.75;5033549;28;20025;-63
2022/06/11 03:11:28;;;;;;;12.25;9.52;;;;;;;19.85;66.71;99536.94;5030863;28;20426;-63
2022/06/11 03:13:54;;;;;;;10.48;9.00;;;;;;;19.93;66.56;99537.31;5033259;28;20410;-63
2022/06/11 03:16:20;;;;;;;10.65;8.07;;;;;;;19.94;65.93;99536.38;5033159;28;20091;-63
2022/06/11 03:18:46;;;;;;;10.57;8.30;;;;;;;19.97;65.62;99531.75;5043559;28;20424;-63
2022/06/11 03:21:11;;;;;;;15.13;8.32;;;;;;;20.07;65.59;99534.66;5053786;28;20536;-63
2022/06/11 03:23:37;;;;;;;11.05;7.57;;;;;;;20.17;65.64;99541.00;5053300;28;20436;-62
2022/06/11 03:26:06;;;;;;;11.93;8.13;;;;;;;20.24;65.32;99535.38;5053035;28;20083;-61
2022/06/11 03:28:33;;;;;;;12.65;8.55;;;;;;;20.28;65.60;99528.94;5052899;28;20199;-62
2022/06/11 03:30:58;;;;;;;10.10;7.93;;;;;;;20.44;64.97;99540.19;5052560;28;20509;-62
2022/06/11 03:33:26;;;;;;;10.23;7.38;;;;;;;20.52;63.96;99542.31;5052771;28;20025;-62
2022/06/11 03:35:52;;;;;;;9.85;6.97;;;;;;;20.47;63.58;99531.25;5053107;28;20076;-62
2022/06/11 03:38:20;;;;;;;10.48;7.63;;;;;;;20.49;63.52;99509.16;5045929;28;20083;-62
2022/06/11 03:40:46;;;;;;;12.63;7.63;;;;;;;20.75;63.26;99537.34;5045931;28;20108;-62
2022/06/11 03:43:12;;;;;;;8.43;7.00;;;;;;;20.80;62.82;99546.63;5043931;28;20068;-63
2022/06/11 03:45:38;;;;;;;9.82;7.13;;;;;;;20.81;62.75;99556.22;5040046;28;20028;-63
2022/06/11 03:48:04;;;;;;;9.15;6.85;;;;;;;20.87;62.06;99541.81;5072705;28;20469;-62
2022/06/11 03:50:34;;;;;;;11.93;6.93;;;;;;;20.72;61.48;99519.13;5072443;28;20024;-62
2022/06/11 03:53:00;;;;;;;10.15;6.38;;;;;;;20.95;61.53;99557.94;5042309;28;20045;-61
2022/06/11 03:55:26;;;;;;;8.15;6.93;;;;;;;20.80;61.85;99517.69;5040380;28;20042;-62
2022/06/11 03:57:52;;;;;;;12.23;7.13;;;;;;;21.02;61.90;99563.63;5032757;28;20485;-62
2022/06/11 04:01:14;;;;;;;8.80;7.50;;;;;;;21.02;62.15;99563.63;5033220;28;20466;-62
2022/06/11 04:03:12;;;;;;;15.70;7.65;;;;;;;20.97;62.59;99555.22;5052310;28;20033;-64
2022/06/11 04:05:40;;;;;;;10.82;9.27;;;;;;;20.62;63.48;99508.34;5032441;28;20405;-64
2022/06/11 04:08:07;;;;;;;11.82;8.50;;;;;;;20.89;64.08;99557.50;5032255;28;20029;-64
2022/06/11 04:10:32;;;;;;;10.60;8.73;;;;;;;20.94;63.86;99558.06;5032247;28;20026;-64
2022/06/11 04:12:58;;;;;;;11.23;7.95;;;;;;;21.07;63.40;99571.25;5031956;28;20029;-64
2022/06/11 04:15:25;;;;;;;11.82;8.73;;;;;;;21.14;63.11;99564.63;5033665;28;20444;-63
2022/06/11 04:17:50;;;;;;;9.55;8.55;;;;;;;21.22;62.14;99559.69;5050624;28;20070;-63
2022/06/11 04:20:16;;;;;;;11.40;8.40;;;;;;;21.29;61.31;99555.69;5051883;28;20056;-63
2022/06/11 04:22:43;;;;;;;11.35;8.68;;;;;;;21.38;61.32;99565.56;5051944;28;20041;-63
2022/06/11 04:25:11;;;;;;;11.82;7.47;;;;;;;21.45;60.67;99563.38;5051919;28;20041;-63
2022/06/11 04:27:36;;;;;;;9.05;7.07;;;;;;;21.53;60.92;99563.72;5048552;28;20057;-63
2022/06/11 04:30:03;;;;;;;10.77;7.70;;;;;;;21.50;61.37;99553.34;5032024;28;20036;-62
2022/06/11 04:32:29;;;;;;;14.30;8.02;;;;;;;21.42;59.73;99550.41;5030579;28;20040;-63
2022/06/11 04:34:56;;;;;;;11.18;6.90;;;;;;;21.40;59.66;99552.28;5045915;28;20041;-62
2022/06/11 04:37:26;;;;;;;10.48;7.20;;;;;;;21.46;59.29;99532.59;5042199;28;20547;-63
2022/06/11 04:39:54;;;;;;;8.52;7.43;;;;;;;21.41;59.06;99506.56;5042685;28;20565;-63
2022/06/11 04:42:21;;;;;;;12.43;7.72;;;;;;;21.76;59.28;99563.88;5069510;28;20025;-63
2022/06/11 04:44:47;;;;;;;7.93;6.60;;;;;;;21.59;60.32;99525.56;5031940;28;20163;-62
2022/06/11 04:47:18;;;;;;;9.13;6.35;;;;;;;21.80;60.32;99572.44;5031784;28;20104;-62
2022/06/11 04:49:44;;;;;;;9.83;7.13;;;;;;;21.78;59.90;99577.81;5031560;28;20513;-62
2022/06/11 04:52:10;;;;;;;11.88;7.57;;;;;;;21.69;59.70;99558.22;5047441;28;20032;-62
2022/06/11 04:54:35;;;;;;;10.90;7.40;;;;;;;21.81;60.46;99574.13;5055966;28;20021;-62
2022/06/11 04:57:01;;;;;;;6.93;6.20;;;;;;;21.88;60.45;99568.31;5034244;28;20033;-62
2022/06/11 04:59:27;;;;;;;13.50;6.53;;;;;;;21.92;61.29;99574.22;5054339;28;20037;-62
2022/06/11 05:01:52;;;;;;;8.27;7.15;;;;;;;21.91;60.96;99574.34;5055272;28;20052;-62
2022/06/11 05:04:18;;;;;;;13.32;7.38;;;;;;;21.98;60.70;99572.94;5064762;28;20027;-62
2022/06/11 05:06:46;;;;;;;9.60;6.70;;;;;;;21.87;60.84;99539.41;5067289;28;20033;-62
2022/06/11 05:09:15;;;;;;;9.27;6.57;;;;;;;22.25;61.49;99588.59;5035660;28;20474;-63
2022/06/11 05:11:42;;;;;;;8.13;6.90;;;;;;;22.46;59.89;99578.31;5037111;28;20033;-63
2022/06/11 05:14:08;;;;;;;7.78;7.03;;;;;;;22.64;60.12;99584.03;5055214;28;20033;-63
2022/06/11 05:16:35;;;;;;;10.68;7.00;;;;;;;22.36;59.88;99572.00;5055586;28;20106;-61
2022/06/11 05:19:01;;;;;;;8.57;6.78;;;;;;;22.19;59.05;99555.59;5055130;28;20071;-63
2022/06/11 05:21:27;;;;;;;8.02;7.10;;;;;;;22.40;58.92;99589.31;5055121;28;20040;-61
2022/06/11 05:23:53;;;;;;;9.02;7.30;;;;;;;22.38;59.03;99592.06;5055406;28;20116;-62
2022/06/11 05:26:30;;;;;;;9.88;7.22;;;;;;;22.23;58.68;99550.91;5055059;28;20036;-61
2022/06/11 05:28:56;;;;;;;7.30;6.35;;;;;;;22.73;59.09;99579.88;5053820;28;20120;-62
2022/06/11 05:31:21;;;;;;;9.25;6.82;;;;;;;22.56;56.73;99592.53;5063822;28;20103;-62
2022/06/11 05:33:47;;;;;;;7.30;6.32;;;;;;;22.89;56.89;99596.28;5074769;28;20036;-62
2022/06/11 05:36:14;;;;;;;10.20;6.93;;;;;;;22.93;56.63;99579.25;5075003;28;20029;-62
2022/06/11 05:38:40;;;;;;;8.23;7.40;;;;;;;23.07;56.99;99587.91;5034785;28;20048;-62
2022/06/11 05:41:06;;;;;;;7.30;6.22;;;;;;;23.31;57.16;99579.13;5034665;28;20025;-62
2022/06/11 05:43:31;;;;;;;7.65;4.63;;;;;;;23.04;52.78;99551.16;5034768;28;20037;-62
2022/06/11 05:46:07;;;;;;;8.32;5.47;;;;;;;23.13;53.56;99573.44;5042511;28;20413;-62
2022/06/11 05:48:39;;;;;;;6.20;5.60;;;;;;;23.29;54.51;99581.03;5052108;28;20033;-62
2022/06/11 05:51:06;;;;;;;6.50;5.90;;;;;;;22.96;53.91;99587.88;5034947;28;20037;-62
2022/06/11 05:53:37;;;;;;;6.25;5.65;;;;;;;22.77;54.50;99544.34;5037408;28;20479;-62
2022/06/11 05:56:04;;;;;;;6.00;5.15;;;;;;;23.15;54.18;99576.81;5052087;28;20037;-62
2022/06/11 05:58:37;;;;;;;6.20;5.60;;;;;;;22.94;53.16;99566.88;5052297;28;20390;-62
2022/06/11 06:01:04;;;;;;;5.28;4.75;;;;;;;23.05;51.64;99590.69;5054487;28;20040;-63
2022/06/11 06:03:30;;;;;;;5.15;4.60;;;;;;;23.23;53.07;99591.13;5052643;28;20076;-62
2022/06/11 06:05:55;;;;;;;7.63;4.80;;;;;;;23.40;54.30;99591.63;5034683;28;20494;-62
2022/06/11 06:08:21;;;;;;;5.72;4.70;;;;;;;23.47;54.18;99595.47;5038016;28;20067;-63
2022/06/11 06:10:47;;;;;;;7.60;5.55;;;;;;;23.42;53.72;99601.13;5066407;28;20041;-64
2022/06/11 06:15:56;;;;;;;7.45;5.22;;;;;;;23.66;53.90;99605.50;5032012;28;20041;-64
2022/06/11 06:18:22;;;;;;;10.98;4.93;;;;;;;23.76;52.97;99602.97;5029481;28;20029;-64
2022/06/11 06:20:48;;;;;;;5.50;5.00;;;;;;;23.92;53.72;99600.00;5030585;28;20040;-64
2022/06/11 06:23:14;;;;;;;8.43;5.35;;;;;;;24.06;52.92;99605.03;5042798;28;20049;-64
2022/06/11 06:25:40;;;;;;;8.57;4.95;;;;;;;24.20;52.48;99609.25;5052744;28;20028;-64
2022/06/11 06:28:06;;;;;;;7.22;4.63;;;;;;;24.26;51.55;99608.75;5054009;28;20382;-64
2022/06/11 06:30:32;;;;;;;5.65;4.35;;;;;;;24.25;49.41;99622.09;5055783;28;20040;-63
2022/06/11 06:32:58;;;;;;;5.05;3.92;;;;;;;24.10;50.33;99614.44;5071843;28;20043;-62
2022/06/11 06:35:24;;;;;;;5.63;3.92;;;;;;;24.11;51.07;99609.97;5052077;28;20048;-65
2022/06/11 06:37:49;;;;;;;6.80;4.57;;;;;;;24.09;51.41;99611.91;5040814;28;20037;-63
2022/06/11 06:40:15;;;;;;;7.18;4.40;;;;;;;24.06;51.65;99617.44;5033501;28;20040;-66
2022/06/11 06:42:41;;;;;;;6.03;4.50;;;;;;;23.94;51.19;99620.09;5048720;28;20048;-66
2022/06/11 06:45:08;;;;;;;6.60;3.65;;;;;;;23.81;49.42;99619.31;5033867;28;20475;-66
2022/06/11 06:47:33;;;;;;;6.65;3.92;;;;;;;23.74;50.02;99623.41;5032201;28;20025;-66
2022/06/11 06:49:59;;;;;;;4.40;4.00;;;;;;;23.69;48.70;99612.34;5033716;28;20113;-66
2022/06/11 06:52:24;;;;;;;4.82;3.40;;;;;;;23.70;51.14;99614.03;5033145;28;20040;-66
2022/06/11 06:54:50;;;;;;;7.38;4.13;;;;;;;23.75;51.43;99615.34;5042696;28;20109;-66
2022/06/11 06:57:16;;;;;;;6.72;3.80;;;;;;;23.79;51.94;99619.44;5033791;28;20052;-66
2022/06/11 06:59:41;;;;;;;8.27;3.67;;;;;;;23.90;51.96;99629.22;5033505;28;20030;-66
2022/06/11 07:02:10;;;;;;;5.82;4.05;;;;;;;23.66;51.99;99578.19;5046740;28;20183;-64
2022/06/11 07:04:36;;;;;;;9.75;4.30;;;;;;;24.01;51.55;99614.31;5047982;28;20347;-61
2022/06/11 07:07:02;;;;;;;3.85;3.47;;;;;;;23.99;49.90;99617.06;5052440;28;20036;-63
2022/06/11 07:09:27;;;;;;;8.35;4.05;;;;;;;24.06;49.71;99612.16;5052892;28;20108;-61
2022/06/11 07:11:53;;;;;;;5.22;3.58;;;;;;;24.04;49.01;99614.06;5052653;28;20056;-61
2022/06/11 07:14:18;;;;;;;4.15;3.13;;;;;;;24.10;48.51;99618.88;5052681;28;20025;-61
2022/06/11 07:16:48;;;;;;;3.63;2.90;;;;;;;23.76;46.52;99569.44;5053023;28;20477;-61
2022/06/11 07:19:19;;;;;;;3.40;3.10;;;;;;;24.20;49.42;99611.03;5059652;28;20074;-62
2022/06/11 07:21:54;;;;;;;7.47;3.22;;;;;;;24.20;47.38;99609.25;5066274;28;20041;-62
2022/06/11 07:24:25;;;;;;;2.80;2.60;;;;;;;24.24;48.48;99623.91;5051025;28;20108;-62
2022/06/11 07:26:57;;;;;;;5.68;3.55;;;;;;;24.09;49.25;99574.84;5053099;28;20036;-62
2022/06/11 07:29:27;;;;;;;3.53;3.00;;;;;;;24.39;49.08;99624.50;5052912;28;20170;-62
2022/06/11 07:32:01;;;;;;;4.93;3.07;;;;;;;24.02;45.46;99582.44;5052151;28;20067;-62
2022/06/11 07:34:27;;;;;;;4.10;2.60;;;;;;;24.17;46.14;99614.78;5052697;28;20049;-62
2022/06/11 07:36:53;;;;;;;2.88;2.50;;;;;;;24.37;46.71;99620.28;5052734;28;20029;-62
2022/06/11 07:39:19;;;;;;;3.47;2.88;;;;;;;24.23;47.44;99592.28;5052945;28;20033;-60
2022/06/11 07:41:45;;;;;;;4.53;2.70;;;;;;;24.36;48.16;99623.91;5052489;28;20363;-61
2022/06/11 07:44:10;;;;;;;3.80;2.63;;;;;;;24.30;48.89;99620.78;5052583;28;20359;-62
2022/06/11 07:46:36;;;;;;;7.07;2.83;;;;;;;24.24;48.72;99626.56;5038756;28;20037;-62
2022/06/11 07:49:02;;;;;;;4.18;2.60;;;;;;;24.24;48.98;99629.22;5037766;28;20061;-61
2022/06/11 07:51:27;;;;;;;2.78;2.42;;;;;;;24.05;50.07;99602.53;5051464;28;20044;-62
2022/06/11 07:53:53;;;;;;;3.53;2.47;;;;;;;24.01;49.93;99588.69;5050043;28;20107;-62
2022/06/11 07:56:19;;;;;;;2.65;2.45;;;;;;;24.24;49.27;99625.72;5049417;28;20071;-62
2022/06/11 07:58:46;;;;;;;3.58;2.55;;;;;;;24.18;49.23;99628.84;5041217;28;20041;-62
2022/06/11 08:01:12;;;;;;;3.15;2.40;;;;;;;24.24;49.47;99636.28;5039988;28;20048;-61
2022/06/11 08:03:38;;;;;;;3.00;2.40;;;;;;;24.17;50.78;99624.50;5050379;28;20417;-61
2022/06/11 08:06:06;;;;;;;4.38;2.30;;;;;;;24.01;49.17;99609.00;5032405;28;20037;-61
2022/06/11 08:08:32;;;;;;;3.88;2.20;;;;;;;24.17;47.78;99628.03;5048335;28;20680;-61
2022/06/11 08:10:59;;;;;;;4.18;2.40;;;;;;;24.15;48.71;99632.56;5051988;28;20025;-61
2022/06/11 08:13:25;;;;;;;2.78;2.53;;;;;;;24.11;50.79;99649.66;5051958;28;20029;-62
2022/06/11 08:15:52;;;;;;;4.10;3.08;;;;;;;24.11;49.41;99644.38;5051966;28;20032;-60
2022/06/11 08:18:19;;;;;;;4.53;2.20;;;;;;;24.17;49.38;99646.53;5052144;28;20048;-61
2022/06/11 08:20:45;;;;;;;3.28;2.40;;;;;;;24.11;50.56;99636.44;5052001;28;20033;-62
2022/06/11 08:23:11;;;;;;;6.32;2.38;;;;;;;24.12;49.68;99643.41;5051945;28;20029;-62
2022/06/11 08:25:37;;;;;;;3.28;2.58;;;;;;;24.16;50.77;99646.63;5051990;28;20475;-62
2022/06/11 08:28:03;;;;;;;4.45;2.08;;;;;;;24.16;49.52;99650.16;5052086;28;20367;-61
2022/06/11 08:30:31;;;;;;;6.10;2.53;;;;;;;24.10;48.72;99640.06;5051716;28;20108;-61
2022/06/11 08:32:57;;;;;;;4.22;2.30;;;;;;;23.99;48.96;99648.00;5051937;28;20028;-62
2022/06/11 08:35:25;;;;;;;3.17;1.95;;;;;;;23.63;49.43;99602.22;5051792;28;20394;-62
2022/06/11 08:37:51;;;;;;;3.47;2.30;;;;;;;23.93;49.73;99647.50;5063268;28;20441;-62
2022/06/11 08:40:22;;;;;;;4.88;2.80;;;;;;;23.65;48.72;99613.56;5071759;28;20033;-61
2022/06/11 08:42:57;;;;;;;5.28;2.88;;;;;;;23.88;49.34;99647.00;5065400;28;20591;-62
2022/06/11 08:45:34;;;;;;;4.90;2.75;;;;;;;23.78;50.13;99638.91;5031631;28;20435;-61
2022/06/11 08:48:04;;;;;;;10.02;2.80;;;;;;;23.85;50.06;99649.88;5031991;28;20493;-61
2022/06/11 08:50:37;;;;;;;4.10;2.72;;;;;;;23.86;50.32;99648.09;5048479;28;20021;-61
2022/06/11 08:53:05;;;;;;;5.28;2.88;;;;;;;23.85;51.53;99655.16;5038478;28;20478;-61
2022/06/11 08:55:35;;;;;;;4.00;2.63;;;;;;;23.63;48.78;99610.16;5041774;28;20030;-61
2022/06/11 08:58:19;;;;;;;4.05;2.97;;;;;;;23.83;51.55;99648.28;5049081;28;20042;-61
2022/06/11 09:00:54;;;;;;;3.85;2.60;;;;;;;23.60;51.53;99637.69;5069470;28;20048;-61
2022/06/11 09:03:28;;;;;;;3.67;2.38;;;;;;;23.63;51.89;99637.47;5051573;28;20025;-61
2022/06/11 09:06:11;;;;;;;4.18;2.80;;;;;;;23.63;52.89;99633.97;5051628;28;20497;-62
2022/06/11 09:08:51;;;;;;;5.50;3.00;;;;;;;23.33;51.15;99580.72;5048770;28;20040;-61
2022/06/11 09:11:28;;;;;;;6.68;3.00;;;;;;;23.64;53.41;99622.44;5051618;28;20040;-61
2022/06/11 09:13:53;;;;;;;3.65;2.80;;;;;;;23.60;53.76;99624.47;5039626;28;20482;-60
2022/06/11 09:16:55;;;;;;;5.20;3.83;;;;;;;23.60;55.14;99627.97;5045954;28;20074;-60
2022/06/11 09:19:27;;;;;;;4.07;3.60;;;;;;;23.61;55.11;99634.09;5057176;28;20112;-61
2022/06/11 09:22:15;;;;;;;7.30;4.00;;;;;;;23.55;55.71;99635.41;5031493;28;20029;-61
2022/06/11 09:25:20;;;;;;;6.07;4.25;;;;;;;23.08;55.38;99593.09;5028392;28;20042;-61
2022/06/11 09:27:54;;;;;;;5.53;3.88;;;;;;;23.43;57.48;99631.91;5031561;28;20034;-61
2022/06/11 09:30:26;;;;;;;10.77;4.25;;;;;;;23.44;57.40;99632.72;5031646;28;20417;-61
2022/06/11 09:33:11;;;;;;;15.43;7.25;;;;;;;22.89;57.51;99592.81;5070934;28;20047;-61
2022/06/11 09:35:46;;;;;;;14.73;6.03;;;;;;;23.30;56.50;99635.59;5035565;28;20054;-61
2022/06/11 09:38:38;;;;;;;8.52;5.53;;;;;;;23.09;56.28;99642.34;5031352;28;20140;-61
2022/06/11 09:41:17;;;;;;;8.50;5.82;;;;;;;23.10;56.75;99643.16;5031671;28;20025;-61
2022/06/11 09:44:23;;;;;;;10.90;6.10;;;;;;;23.18;57.94;99648.75;5034635;28;20037;-61
2022/06/11 09:47:02;;;;;;;22.90;10.73;;;;;;;23.22;59.57;99652.03;5026214;28;20056;-61
2022/06/11 09:49:53;;;;;;;11.50;6.63;;;;;;;23.14;57.65;99646.47;5035112;28;20065;-61
2022/06/11 09:52:36;;;;;;;10.53;6.30;;;;;;;23.12;58.72;99643.09;5048129;28;20037;-61
2022/06/11 09:55:28;;;;;;;11.63;6.38;;;;;;;22.97;58.26;99645.03;5063561;28;20473;-61
2022/06/11 09:58:06;;;;;;;9.68;5.47;;;;;;;22.97;58.32;99647.69;5071604;28;20036;-61
2022/06/11 10:00:44;;;;;;;8.95;5.97;;;;;;;22.87;60.51;99639.59;5053153;28;20037;-61
2022/06/11 10:03:35;;;;;;;16.27;6.55;;;;;;;22.70;60.23;99644.31;5054522;28;20032;-61
2022/06/11 10:06:31;;;;;;;11.13;5.38;;;;;;;22.53;62.11;99599.81;5054989;28;20116;-61
2022/06/11 10:09:01;;;;;;;8.30;5.60;;;;;;;22.67;62.31;99639.25;5034745;28;20344;-61
2022/06/11 10:11:29;;;;;;;9.95;5.43;;;;;;;22.69;63.39;99653.19;5034486;28;20029;-61
2022/06/11 10:14:28;;;;;;;8.05;5.60;;;;;;;22.70;63.51;99654.88;5034488;28;20037;-61
2022/06/11 10:16:56;;;;;;;10.18;6.10;;;;;;;22.72;64.28;99654.78;5034322;28;20044;-61
2022/06/11 10:19:44;;;;;;;9.88;5.15;;;;;;;22.36;61.78;99603.66;5034548;28;20044;-62
2022/06/11 10:22:19;;;;;;;8.38;5.22;;;;;;;22.64;59.19;99643.91;5034502;28;20037;-62
2022/06/11 10:25:02;;;;;;;6.25;4.93;;;;;;;22.89;61.83;99646.44;5054114;28;20025;-61
2022/06/11 10:27:35;;;;;;;7.72;6.00;;;;;;;22.66;58.60;99607.69;5053891;28;20021;-62
2022/06/11 10:30:12;;;;;;;7.65;5.40;;;;;;;22.87;59.17;99634.31;5054121;28;20340;-62
2022/06/11 10:32:42;;;;;;;7.80;4.97;;;;;;;23.04;59.67;99641.81;5071071;28;20024;-61
2022/06/11 10:35:11;;;;;;;6.30;4.45;;;;;;;23.07;58.54;99651.31;5047266;28;20049;-62
2022/06/11 10:37:45;;;;;;;7.40;4.70;;;;;;;22.69;55.69;99600.38;5034167;28;20041;-62
2022/06/11 10:40:22;;;;;;;8.50;4.57;;;;;;;22.77;57.91;99639.41;5050817;28;20031;-62
2022/06/11 10:42:54;;;;;;;10.93;8.40;;;;;;;22.85;58.10;99639.72;5035960;28;20490;-62
2022/06/11 10:45:20;;;;;;;5.30;4.60;;;;;;;22.89;57.11;99640.34;5050251;28;20031;-62
2022/06/11 10:47:50;;;;;;;7.45;4.13;;;;;;;22.79;55.72;99632.25;5033674;28;20418;-62
2022/06/11 10:50:21;;;;;;;7.43;4.30;;;;;;;22.52;53.99;99590.22;5044686;28;20037;-62
2022/06/11 10:53:02;;;;;;;;;;;;;;;22.85;56.58;99629.16;5054010;28;20036;-62
2022/06/11 10:55:42;;;;;;;15.52;10.35;;;;;;;22.90;58.21;99634.94;5060485;28;19954;-62
2022/06/11 10:58:39;;;;;;;6.43;4.95;;;;;;;22.87;56.44;99634.31;5063866;28;20075;-62
2022/06/11 11:01:11;;;;;;;7.97;4.32;;;;;;;22.79;53.64;99620.81;5037784;28;20029;-62
2022/06/11 11:03:50;;;;;;;5.95;4.18;;;;;;;22.86;55.57;99632.63;5053127;28;20035;-62
2022/06/11 11:06:28;;;;;;;6.75;4.25;;;;;;;22.52;57.00;99574.38;5053544;28;20058;-62
2022/06/11 11:09:00;;;;;;;7.68;3.75;;;;;;;22.66;57.85;99605.03;5053107;28;20021;-62
2022/06/11 11:11:32;;;;;;;4.80;3.75;;;;;;;22.62;58.40;99582.44;5068733;28;20039;-62
2022/06/11 11:14:08;;;;;;;4.40;3.85;;;;;;;22.88;56.47;99625.44;5049899;28;20025;-62
2022/06/11 11:16:39;;;;;;;5.35;3.67;;;;;;;22.65;57.13;99587.53;5031572;28;20024;-62
2022/06/11 11:19:14;;;;;;;7.38;3.75;;;;;;;22.92;58.14;99624.25;5033018;28;20033;-62
2022/06/11 11:21:54;;;;;;;5.03;3.88;;;;;;;22.92;57.88;99629.53;5034278;28;20029;-62
2022/06/11 11:24:24;;;;;;;4.55;4.13;;;;;;;22.57;56.38;99582.78;5054409;28;20504;-62
2022/06/11 11:27:06;;;;;;;7.10;4.63;;;;;;;22.72;54.77;99636.28;5052883;28;20044;-62
2022/06/11 11:29:35;;;;;;;7.53;5.13;;;;;;;22.53;55.04;99578.69;5051552;28;20036;-61
2022/06/11 11:32:04;;;;;;;6.35;4.32;;;;;;;22.82;56.49;99617.97;5052783;28;20029;-60
2022/06/11 11:34:41;;;;;;;5.32;4.22;;;;;;;22.93;57.00;99629.44;5059939;28;20036;-61
2022/06/11 11:37:13;;;;;;;10.00;4.45;;;;;;;23.00;56.64;99629.81;5063856;28;20495;-62
2022/06/11 11:39:49;;;;;;;8.90;4.45;;;;;;;22.96;55.47;99632.78;5032869;28;20097;-62
2022/06/11 11:42:19;;;;;;;7.63;4.28;;;;;;;22.80;55.19;99596.94;5032705;28;20029;-62
2022/06/11 11:44:51;;;;;;;9.43;6.97;;;;;;;22.85;54.67;99623.84;5032545;28;20045;-61
2022/06/11 11:47:20;;;;;;;7.90;4.78;;;;;;;22.53;53.20;99579.56;5061443;28;20053;-61
2022/06/11 11:49:53;;;;;;;6.90;4.65;;;;;;;22.83;53.78;99627.56;5042208;28;20029;-62
2022/06/11 11:52:22;;;;;;;10.88;4.78;;;;;;;22.82;54.12;99631.19;5052532;28;20037;-61